Etusivu
METAR-TAF:

METAR-TAF

Lentoasemat :

Jönköping, Ruotsi

Leveyspiiri: 57-46N, Pituuspiiri: 014-05E, korkeus merenpinnasta: 226 m

Tämänhetkinen sää

Tämä raportti tehtiin 15 minuuttia sitten, kello 01.20 UTC
Tuuli 5 kn etelästä
Lämpötila 9°C
Kosteus 100%
Ilmanpaine 1009 hPa
Näkyvyys 10 km tai enemmän

METAR: ESGJ 190120Z AUTO 19005KT 9999 NCD 09/09 Q1009

Aika: 03:35 (01:35 UTC)

Sääennuste

Tämä raportti tehtiin 5 tuntia ja 5 minuuttia sitten, kello 20.30 UTC
Ennuste voimassa 18. päivästä klo 21 UTC - 19. päivään klo 01 UTC
Tuuli 7 kn lounaasta
Näkyvyys 10 km tai enemmän
ei pilviä alle 1500 m:ssä eikä cumulonimbus-pilviä

TAF: ESGJ 182030Z 1821/1901 23007KT CAVOK

Säähavainnot ja -ennusteet yli 4000 lentoasemalta (METAR- ja TAF-raportit).

Käytössä olevat sääasemat on merkitty karttaan keltaisilla ja punaisilla pisteillä.

Aseta hiiri pisteen päälle nähdäksesi sääaseman nimen.

Klikkaa sitten nähdäksesi säähavainnot ja -ennusteet.

Kartan vaihtaminen: klikkaa mustalla rastilla varustettuja vihreitä pisteitä, niin voit zoomata sisään; viivalla varustettua vihreää pistettä, niin voit zoomata ulos tai vihreitä nuolia, niin pääset viereisille kartoille.


METAR-TAF: